sensor_id;sensor_type;location;lat;lon;timestamp;temperature;humidity
22629;DHT22;11481;53.694;9.910;2022-09-13T00:00:49;20.10;99.90
22629;DHT22;11481;53.694;9.910;2022-09-13T00:03:17;20.10;99.90
22629;DHT22;11481;53.694;9.910;2022-09-13T00:05:44;20.10;99.90
22629;DHT22;11481;53.694;9.910;2022-09-13T00:08:11;20.10;99.90
22629;DHT22;11481;53.694;9.910;2022-09-13T00:10:40;20.10;99.90
22629;DHT22;11481;53.694;9.910;2022-09-13T00:13:08;20.10;99.90
22629;DHT22;11481;53.694;9.910;2022-09-13T00:15:35;20.10;99.90
22629;DHT22;11481;53.694;9.910;2022-09-13T00:18:02;20.10;99.90
22629;DHT22;11481;53.694;9.910;2022-09-13T00:20:29;20.10;99.90
22629;DHT22;11481;53.694;9.910;2022-09-13T00:22:56;20.00;99.90
22629;DHT22;11481;53.694;9.910;2022-09-13T00:25:22;20.00;99.90
22629;DHT22;11481;53.694;9.910;2022-09-13T00:27:49;20.10;99.90
22629;DHT22;11481;53.694;9.910;2022-09-13T00:30:15;20.10;99.90
22629;DHT22;11481;53.694;9.910;2022-09-13T00:32:42;20.00;99.90
22629;DHT22;11481;53.694;9.910;2022-09-13T00:35:09;20.00;99.90
22629;DHT22;11481;53.694;9.910;2022-09-13T00:37:37;20.00;99.90
22629;DHT22;11481;53.694;9.910;2022-09-13T00:40:05;20.00;99.90
22629;DHT22;11481;53.694;9.910;2022-09-13T00:42:32;19.90;99.90
22629;DHT22;11481;53.694;9.910;2022-09-13T00:45:02;19.80;99.90
22629;DHT22;11481;53.694;9.910;2022-09-13T00:47:39;19.60;99.90
22629;DHT22;11481;53.694;9.910;2022-09-13T00:53:15;19.20;99.90
22629;DHT22;11481;53.694;9.910;2022-09-13T00:56:10;19.10;99.90
22629;DHT22;11481;53.694;9.910;2022-09-13T00:58:51;19.10;99.90
22629;DHT22;11481;53.694;9.910;2022-09-13T01:01:20;18.90;99.90
22629;DHT22;11481;53.694;9.910;2022-09-13T01:03:48;18.70;99.90
22629;DHT22;11481;53.694;9.910;2022-09-13T01:06:22;18.70;99.90
22629;DHT22;11481;53.694;9.910;2022-09-13T01:08:51;18.70;99.90
22629;DHT22;11481;53.694;9.910;2022-09-13T01:11:25;18.60;99.90
22629;DHT22;11481;53.694;9.910;2022-09-13T01:13:54;18.60;99.90
22629;DHT22;11481;53.694;9.910;2022-09-13T01:16:21;18.30;99.90
22629;DHT22;11481;53.694;9.910;2022-09-13T01:18:47;18.30;99.90
22629;DHT22;11481;53.694;9.910;2022-09-13T01:21:43;18.40;99.90
22629;DHT22;11481;53.694;9.910;2022-09-13T01:24:32;18.20;99.90
22629;DHT22;11481;53.694;9.910;2022-09-13T01:27:37;18.20;99.90
22629;DHT22;11481;53.694;9.910;2022-09-13T01:32:53;18.10;99.90
22629;DHT22;11481;53.694;9.910;2022-09-13T01:41:19;18.10;99.90
22629;DHT22;11481;53.694;9.910;2022-09-13T01:49:31;18.30;99.90
22629;DHT22;11481;53.694;9.910;2022-09-13T01:52:18;18.30;99.90
22629;DHT22;11481;53.694;9.910;2022-09-13T01:55:00;18.30;99.90
22629;DHT22;11481;53.694;9.910;2022-09-13T01:58:07;18.20;99.90
22629;DHT22;11481;53.694;9.910;2022-09-13T02:00:26;18.20;99.90
22629;DHT22;11481;53.694;9.910;2022-09-13T02:03:14;18.30;99.90
22629;DHT22;11481;53.694;9.910;2022-09-13T02:05:49;18.30;99.90
22629;DHT22;11481;53.694;9.910;2022-09-13T02:08:30;18.30;99.90
22629;DHT22;11481;53.694;9.910;2022-09-13T02:11:10;18.40;99.90
22629;DHT22;11481;53.694;9.910;2022-09-13T02:13:42;18.40;99.90
22629;DHT22;11481;53.694;9.910;2022-09-13T02:16:19;18.30;99.90
22629;DHT22;11481;53.694;9.910;2022-09-13T02:18:53;18.30;99.90
22629;DHT22;11481;53.694;9.910;2022-09-13T02:21:31;18.20;99.90
22629;DHT22;11481;53.694;9.910;2022-09-13T02:24:09;18.20;99.90
22629;DHT22;11481;53.694;9.910;2022-09-13T02:26:38;18.20;99.90
22629;DHT22;11481;53.694;9.910;2022-09-13T02:29:10;18.10;99.90
22629;DHT22;11481;53.694;9.910;2022-09-13T02:31:50;18.10;99.90
22629;DHT22;11481;53.694;9.910;2022-09-13T02:34:25;18.00;99.90
22629;DHT22;11481;53.694;9.910;2022-09-13T02:36:54;17.80;99.90
22629;DHT22;11481;53.694;9.910;2022-09-13T02:39:24;17.70;99.90
22629;DHT22;11481;53.694;9.910;2022-09-13T02:42:14;17.60;99.90
22629;DHT22;11481;53.694;9.910;2022-09-13T02:44:45;17.50;99.90
22629;DHT22;11481;53.694;9.910;2022-09-13T02:47:28;17.50;99.90
22629;DHT22;11481;53.694;9.910;2022-09-13T02:50:44;17.50;99.90
22629;DHT22;11481;53.694;9.910;2022-09-13T03:01:28;17.50;99.90
22629;DHT22;11481;53.694;9.910;2022-09-13T03:03:55;17.50;99.90
22629;DHT22;11481;53.694;9.910;2022-09-13T03:06:26;17.50;99.90
22629;DHT22;11481;53.694;9.910;2022-09-13T03:08:56;17.50;99.90
22629;DHT22;11481;53.694;9.910;2022-09-13T03:17:20;17.60;99.90
22629;DHT22;11481;53.694;9.910;2022-09-13T03:20:05;17.50;99.90
22629;DHT22;11481;53.694;9.910;2022-09-13T03:25:17;17.50;99.90
22629;DHT22;11481;53.694;9.910;2022-09-13T03:30:15;17.30;99.90
22629;DHT22;11481;53.694;9.910;2022-09-13T03:33:11;17.20;99.90
22629;DHT22;11481;53.694;9.910;2022-09-13T03:35:52;17.20;99.90
22629;DHT22;11481;53.694;9.910;2022-09-13T03:38:36;17.10;99.90
22629;DHT22;11481;53.694;9.910;2022-09-13T03:41:09;17.10;99.90
22629;DHT22;11481;53.694;9.910;2022-09-13T03:43:49;17.20;99.90
22629;DHT22;11481;53.694;9.910;2022-09-13T03:46:43;17.20;99.90
22629;DHT22;11481;53.694;9.910;2022-09-13T03:49:15;17.20;99.90
22629;DHT22;11481;53.694;9.910;2022-09-13T03:51:45;17.30;99.90
22629;DHT22;11481;53.694;9.910;2022-09-13T03:54:19;17.30;99.90
22629;DHT22;11481;53.694;9.910;2022-09-13T03:57:06;17.30;99.90
22629;DHT22;11481;53.694;9.910;2022-09-13T03:59:34;17.30;99.90
22629;DHT22;11481;53.694;9.910;2022-09-13T04:02:07;17.20;99.90
22629;DHT22;11481;53.694;9.910;2022-09-13T04:04:41;17.20;99.90
22629;DHT22;11481;53.694;9.910;2022-09-13T04:07:10;17.10;99.90
22629;DHT22;11481;53.694;9.910;2022-09-13T04:09:37;17.10;99.90
22629;DHT22;11481;53.694;9.910;2022-09-13T04:12:05;17.00;99.90
22629;DHT22;11481;53.694;9.910;2022-09-13T04:14:31;17.00;99.90
22629;DHT22;11481;53.694;9.910;2022-09-13T04:16:58;17.10;99.90
22629;DHT22;11481;53.694;9.910;2022-09-13T04:19:25;17.00;99.90
22629;DHT22;11481;53.694;9.910;2022-09-13T04:21:53;17.00;99.90
22629;DHT22;11481;53.694;9.910;2022-09-13T04:24:27;16.90;99.90
22629;DHT22;11481;53.694;9.910;2022-09-13T04:26:54;16.90;99.90
22629;DHT22;11481;53.694;9.910;2022-09-13T04:29:23;16.80;99.90
22629;DHT22;11481;53.694;9.910;2022-09-13T04:31:52;16.80;99.90
22629;DHT22;11481;53.694;9.910;2022-09-13T04:34:19;16.80;99.90
22629;DHT22;11481;53.694;9.910;2022-09-13T04:36:48;16.80;99.90
22629;DHT22;11481;53.694;9.910;2022-09-13T04:39:15;16.70;99.90
22629;DHT22;11481;53.694;9.910;2022-09-13T04:41:43;16.60;99.90
22629;DHT22;11481;53.694;9.910;2022-09-13T04:44:12;16.60;99.90
22629;DHT22;11481;53.694;9.910;2022-09-13T04:46:39;16.60;99.90
22629;DHT22;11481;53.694;9.910;2022-09-13T04:49:09;16.60;99.90
22629;DHT22;11481;53.694;9.910;2022-09-13T04:51:35;16.60;99.90
22629;DHT22;11481;53.694;9.910;2022-09-13T04:54:02;16.60;99.90
22629;DHT22;11481;53.694;9.910;2022-09-13T04:56:29;16.60;99.90
22629;DHT22;11481;53.694;9.910;2022-09-13T04:58:55;16.60;99.90
22629;DHT22;11481;53.694;9.910;2022-09-13T05:01:22;16.60;99.90
22629;DHT22;11481;53.694;9.910;2022-09-13T05:03:53;16.50;99.90
22629;DHT22;11481;53.694;9.910;2022-09-13T05:06:21;16.40;99.90
22629;DHT22;11481;53.694;9.910;2022-09-13T05:08:53;16.50;99.90
22629;DHT22;11481;53.694;9.910;2022-09-13T05:11:21;16.50;99.90
22629;DHT22;11481;53.694;9.910;2022-09-13T05:13:49;16.50;99.90
22629;DHT22;11481;53.694;9.910;2022-09-13T05:16:28;16.40;99.90
22629;DHT22;11481;53.694;9.910;2022-09-13T05:18:55;16.50;99.90
22629;DHT22;11481;53.694;9.910;2022-09-13T05:21:22;16.60;99.90
22629;DHT22;11481;53.694;9.910;2022-09-13T05:23:50;16.50;99.90
22629;DHT22;11481;53.694;9.910;2022-09-13T05:26:17;16.50;99.90
22629;DHT22;11481;53.694;9.910;2022-09-13T05:28:44;16.50;99.90
22629;DHT22;11481;53.694;9.910;2022-09-13T05:31:22;16.50;99.90
22629;DHT22;11481;53.694;9.910;2022-09-13T05:34:16;16.50;99.90
22629;DHT22;11481;53.694;9.910;2022-09-13T05:36:43;16.60;99.90
22629;DHT22;11481;53.694;9.910;2022-09-13T05:39:12;16.60;99.90
22629;DHT22;11481;53.694;9.910;2022-09-13T05:41:59;16.60;99.90
22629;DHT22;11481;53.694;9.910;2022-09-13T05:44:26;16.60;99.90
22629;DHT22;11481;53.694;9.910;2022-09-13T05:46:52;16.60;99.90
22629;DHT22;11481;53.694;9.910;2022-09-13T05:49:19;16.60;99.90
22629;DHT22;11481;53.694;9.910;2022-09-13T05:51:45;16.70;99.90
22629;DHT22;11481;53.694;9.910;2022-09-13T05:54:12;16.80;99.90
22629;DHT22;11481;53.694;9.910;2022-09-13T05:56:39;16.80;99.90
22629;DHT22;11481;53.694;9.910;2022-09-13T05:59:06;16.80;99.90
22629;DHT22;11481;53.694;9.910;2022-09-13T06:01:34;16.80;99.90
22629;DHT22;11481;53.694;9.910;2022-09-13T06:04:01;16.70;99.90
22629;DHT22;11481;53.694;9.910;2022-09-13T06:06:27;16.70;99.90
22629;DHT22;11481;53.694;9.910;2022-09-13T06:08:55;16.80;99.90
22629;DHT22;11481;53.694;9.910;2022-09-13T06:11:23;16.80;99.90
22629;DHT22;11481;53.694;9.910;2022-09-13T06:13:50;16.80;99.90
22629;DHT22;11481;53.694;9.910;2022-09-13T06:16:17;16.80;99.90
22629;DHT22;11481;53.694;9.910;2022-09-13T06:18:44;16.90;99.90
22629;DHT22;11481;53.694;9.910;2022-09-13T06:21:19;16.80;99.90
22629;DHT22;11481;53.694;9.910;2022-09-13T06:23:55;16.80;99.90
22629;DHT22;11481;53.694;9.910;2022-09-13T06:26:24;16.90;99.90
22629;DHT22;11481;53.694;9.910;2022-09-13T06:29:15;16.90;99.90
22629;DHT22;11481;53.694;9.910;2022-09-13T06:31:42;16.90;99.90
22629;DHT22;11481;53.694;9.910;2022-09-13T06:34:11;16.90;99.90
22629;DHT22;11481;53.694;9.910;2022-09-13T06:36:42;17.00;99.90
22629;DHT22;11481;53.694;9.910;2022-09-13T06:39:09;17.00;99.90
22629;DHT22;11481;53.694;9.910;2022-09-13T06:41:36;17.00;99.90
22629;DHT22;11481;53.694;9.910;2022-09-13T06:44:05;17.00;99.90
22629;DHT22;11481;53.694;9.910;2022-09-13T06:46:33;17.10;99.90
22629;DHT22;11481;53.694;9.910;2022-09-13T06:49:02;17.10;99.90
22629;DHT22;11481;53.694;9.910;2022-09-13T06:51:29;17.10;99.90
22629;DHT22;11481;53.694;9.910;2022-09-13T06:53:57;17.20;99.90
22629;DHT22;11481;53.694;9.910;2022-09-13T06:56:26;17.20;99.90
22629;DHT22;11481;53.694;9.910;2022-09-13T06:58:59;17.30;99.90
22629;DHT22;11481;53.694;9.910;2022-09-13T07:01:31;17.30;99.90
22629;DHT22;11481;53.694;9.910;2022-09-13T07:04:04;17.30;99.90
22629;DHT22;11481;53.694;9.910;2022-09-13T07:06:33;17.30;99.90
22629;DHT22;11481;53.694;9.910;2022-09-13T07:09:02;17.40;99.90
22629;DHT22;11481;53.694;9.910;2022-09-13T07:11:32;17.40;99.90
22629;DHT22;11481;53.694;9.910;2022-09-13T07:13:59;17.40;99.90
22629;DHT22;11481;53.694;9.910;2022-09-13T07:16:28;17.40;99.90
22629;DHT22;11481;53.694;9.910;2022-09-13T07:19:00;17.40;99.90
22629;DHT22;11481;53.694;9.910;2022-09-13T07:21:27;17.40;99.90
22629;DHT22;11481;53.694;9.910;2022-09-13T07:23:55;17.50;99.90
22629;DHT22;11481;53.694;9.910;2022-09-13T07:26:23;17.60;99.90
22629;DHT22;11481;53.694;9.910;2022-09-13T07:29:16;17.60;99.90
22629;DHT22;11481;53.694;9.910;2022-09-13T07:31:47;17.70;99.90
22629;DHT22;11481;53.694;9.910;2022-09-13T07:34:16;17.80;99.90
22629;DHT22;11481;53.694;9.910;2022-09-13T07:36:43;17.90;99.90
22629;DHT22;11481;53.694;9.910;2022-09-13T07:39:15;17.90;99.90
22629;DHT22;11481;53.694;9.910;2022-09-13T07:41:48;17.90;99.90
22629;DHT22;11481;53.694;9.910;2022-09-13T07:44:15;17.80;99.90
22629;DHT22;11481;53.694;9.910;2022-09-13T07:46:41;17.80;99.90
22629;DHT22;11481;53.694;9.910;2022-09-13T07:49:12;17.90;99.90
22629;DHT22;11481;53.694;9.910;2022-09-13T07:51:41;17.80;99.90
22629;DHT22;11481;53.694;9.910;2022-09-13T07:54:13;17.80;99.90
22629;DHT22;11481;53.694;9.910;2022-09-13T07:56:40;17.90;99.90
22629;DHT22;11481;53.694;9.910;2022-09-13T07:59:11;17.90;99.90
22629;DHT22;11481;53.694;9.910;2022-09-13T08:01:44;17.90;99.90
22629;DHT22;11481;53.694;9.910;2022-09-13T08:04:18;18.10;99.90
22629;DHT22;11481;53.694;9.910;2022-09-13T08:06:45;18.20;99.90
22629;DHT22;11481;53.694;9.910;2022-09-13T08:09:13;18.40;99.90
22629;DHT22;11481;53.694;9.910;2022-09-13T08:11:47;18.50;99.90
22629;DHT22;11481;53.694;9.910;2022-09-13T08:14:16;18.60;99.90
22629;DHT22;11481;53.694;9.910;2022-09-13T08:16:43;18.60;99.90
22629;DHT22;11481;53.694;9.910;2022-09-13T08:19:12;18.70;99.90
22629;DHT22;11481;53.694;9.910;2022-09-13T08:21:40;18.50;99.90
22629;DHT22;11481;53.694;9.910;2022-09-13T08:24:11;18.20;99.90
22629;DHT22;11481;53.694;9.910;2022-09-13T08:26:38;18.10;99.90
22629;DHT22;11481;53.694;9.910;2022-09-13T08:29:05;18.20;99.90
22629;DHT22;11481;53.694;9.910;2022-09-13T08:31:32;18.20;99.90
22629;DHT22;11481;53.694;9.910;2022-09-13T08:34:00;18.30;99.90
22629;DHT22;11481;53.694;9.910;2022-09-13T08:36:27;18.20;99.90
22629;DHT22;11481;53.694;9.910;2022-09-13T08:38:59;18.20;99.90
22629;DHT22;11481;53.694;9.910;2022-09-13T08:44:39;18.40;99.90
22629;DHT22;11481;53.694;9.910;2022-09-13T08:47:26;18.60;99.90
22629;DHT22;11481;53.694;9.910;2022-09-13T08:50:13;18.60;99.90
22629;DHT22;11481;53.694;9.910;2022-09-13T09:01:16;18.80;99.90
22629;DHT22;11481;53.694;9.910;2022-09-13T09:03:53;18.70;99.90
22629;DHT22;11481;53.694;9.910;2022-09-13T09:06:22;18.80;99.90
22629;DHT22;11481;53.694;9.910;2022-09-13T09:08:53;18.80;99.90
22629;DHT22;11481;53.694;9.910;2022-09-13T09:11:40;18.80;99.90
22629;DHT22;11481;53.694;9.910;2022-09-13T09:14:36;19.00;99.90
22629;DHT22;11481;53.694;9.910;2022-09-13T09:17:07;19.10;99.90
22629;DHT22;11481;53.694;9.910;2022-09-13T09:19:42;19.00;99.90
22629;DHT22;11481;53.694;9.910;2022-09-13T09:22:16;19.10;99.90
22629;DHT22;11481;53.694;9.910;2022-09-13T09:24:47;19.20;99.90
22629;DHT22;11481;53.694;9.910;2022-09-13T09:27:18;19.30;99.90
22629;DHT22;11481;53.694;9.910;2022-09-13T09:29:48;19.30;99.90
22629;DHT22;11481;53.694;9.910;2022-09-13T09:38:40;19.60;99.90
22629;DHT22;11481;53.694;9.910;2022-09-13T09:41:25;19.70;99.90
22629;DHT22;11481;53.694;9.910;2022-09-13T09:46:28;19.40;99.90
22629;DHT22;11481;53.694;9.910;2022-09-13T09:49:11;19.30;99.90
22629;DHT22;11481;53.694;9.910;2022-09-13T09:52:01;19.40;99.90
22629;DHT22;11481;53.694;9.910;2022-09-13T09:54:33;19.40;99.90
22629;DHT22;11481;53.694;9.910;2022-09-13T09:57:01;19.50;99.90
22629;DHT22;11481;53.694;9.910;2022-09-13T09:59:29;19.70;99.90
22629;DHT22;11481;53.694;9.910;2022-09-13T10:02:10;19.80;99.90
22629;DHT22;11481;53.694;9.910;2022-09-13T10:04:39;19.80;99.90
22629;DHT22;11481;53.694;9.910;2022-09-13T10:07:09;19.90;99.90
22629;DHT22;11481;53.694;9.910;2022-09-13T10:10:04;19.90;99.90
22629;DHT22;11481;53.694;9.910;2022-09-13T10:12:33;20.00;99.90
22629;DHT22;11481;53.694;9.910;2022-09-13T10:15:14;19.90;99.90
22629;DHT22;11481;53.694;9.910;2022-09-13T10:18:31;20.00;99.90
22629;DHT22;11481;53.694;9.910;2022-09-13T10:23:45;19.80;99.90
22629;DHT22;11481;53.694;9.910;2022-09-13T10:26:23;19.80;99.90
22629;DHT22;11481;53.694;9.910;2022-09-13T10:31:19;19.90;99.90
22629;DHT22;11481;53.694;9.910;2022-09-13T10:36:19;19.90;99.90
22629;DHT22;11481;53.694;9.910;2022-09-13T10:39:12;20.10;99.90
22629;DHT22;11481;53.694;9.910;2022-09-13T10:41:49;20.20;99.90
22629;DHT22;11481;53.694;9.910;2022-09-13T10:46:56;20.10;99.90
22629;DHT22;11481;53.694;9.910;2022-09-13T10:49:40;20.20;99.90
22629;DHT22;11481;53.694;9.910;2022-09-13T10:54:54;20.30;99.90
22629;DHT22;11481;53.694;9.910;2022-09-13T10:57:32;20.10;99.90
22629;DHT22;11481;53.694;9.910;2022-09-13T11:00:00;20.10;99.90
22629;DHT22;11481;53.694;9.910;2022-09-13T11:07:48;20.70;99.90
22629;DHT22;11481;53.694;9.910;2022-09-13T11:28:14;20.60;99.90
22629;DHT22;11481;53.694;9.910;2022-09-13T11:34:10;20.50;99.90
22629;DHT22;11481;53.694;9.910;2022-09-13T11:45:26;20.40;99.90
22629;DHT22;11481;53.694;9.910;2022-09-13T11:48:20;20.30;99.90
22629;DHT22;11481;53.694;9.910;2022-09-13T11:54:03;20.00;99.90
22629;DHT22;11481;53.694;9.910;2022-09-13T11:56:38;19.80;99.90
22629;DHT22;11481;53.694;9.910;2022-09-13T11:59:59;20.00;99.90
22629;DHT22;11481;53.694;9.910;2022-09-13T12:02:39;20.10;99.90
22629;DHT22;11481;53.694;9.910;2022-09-13T12:05:15;20.40;99.90
22629;DHT22;11481;53.694;9.910;2022-09-13T12:08:05;20.60;99.90
22629;DHT22;11481;53.694;9.910;2022-09-13T12:13:25;20.20;99.90
22629;DHT22;11481;53.694;9.910;2022-09-13T12:15:59;20.00;99.90
22629;DHT22;11481;53.694;9.910;2022-09-13T12:18:43;20.10;99.90
22629;DHT22;11481;53.694;9.910;2022-09-13T12:21:20;20.20;99.90
22629;DHT22;11481;53.694;9.910;2022-09-13T12:24:00;20.30;99.90
22629;DHT22;11481;53.694;9.910;2022-09-13T12:26:51;20.40;99.90
22629;DHT22;11481;53.694;9.910;2022-09-13T12:32:09;20.70;99.90
22629;DHT22;11481;53.694;9.910;2022-09-13T12:34:40;20.70;99.90
22629;DHT22;11481;53.694;9.910;2022-09-13T12:37:52;20.40;99.90
22629;DHT22;11481;53.694;9.910;2022-09-13T12:40:57;20.00;99.90
22629;DHT22;11481;53.694;9.910;2022-09-13T12:46:34;20.20;99.90
22629;DHT22;11481;53.694;9.910;2022-09-13T12:52:02;20.40;99.90
22629;DHT22;11481;53.694;9.910;2022-09-13T12:54:54;20.70;99.90
22629;DHT22;11481;53.694;9.910;2022-09-13T12:57:38;20.60;99.90
22629;DHT22;11481;53.694;9.910;2022-09-13T13:00:18;20.70;99.90
22629;DHT22;11481;53.694;9.910;2022-09-13T13:05:34;20.50;99.90
22629;DHT22;11481;53.694;9.910;2022-09-13T13:08:05;20.30;99.90
22629;DHT22;11481;53.694;9.910;2022-09-13T13:10:37;20.20;99.90
22629;DHT22;11481;53.694;9.910;2022-09-13T13:13:19;20.10;99.90
22629;DHT22;11481;53.694;9.910;2022-09-13T13:21:22;20.60;99.90
22629;DHT22;11481;53.694;9.910;2022-09-13T13:29:26;20.00;99.90
22629;DHT22;11481;53.694;9.910;2022-09-13T13:34:48;19.80;99.90
22629;DHT22;11481;53.694;9.910;2022-09-13T13:42:36;19.50;99.90
22629;DHT22;11481;53.694;9.910;2022-09-13T13:45:17;19.50;99.90
22629;DHT22;11481;53.694;9.910;2022-09-13T13:48:07;19.70;99.90
22629;DHT22;11481;53.694;9.910;2022-09-13T13:50:34;19.60;99.90
22629;DHT22;11481;53.694;9.910;2022-09-13T13:53:34;19.90;99.90
22629;DHT22;11481;53.694;9.910;2022-09-13T13:59:03;20.00;99.90
22629;DHT22;11481;53.694;9.910;2022-09-13T14:01:33;19.80;99.90
22629;DHT22;11481;53.694;9.910;2022-09-13T14:09:52;19.90;99.90
22629;DHT22;11481;53.694;9.910;2022-09-13T14:12:53;20.00;99.90
22629;DHT22;11481;53.694;9.910;2022-09-13T14:23:26;20.10;99.90
22629;DHT22;11481;53.694;9.910;2022-09-13T14:25:56;19.90;99.90
22629;DHT22;11481;53.694;9.910;2022-09-13T14:28:23;19.80;99.90
22629;DHT22;11481;53.694;9.910;2022-09-13T14:30:55;19.70;99.90
22629;DHT22;11481;53.694;9.910;2022-09-13T14:36:04;19.80;99.90
22629;DHT22;11481;53.694;9.910;2022-09-13T14:38:34;19.90;99.90
22629;DHT22;11481;53.694;9.910;2022-09-13T14:41:12;20.10;99.90
22629;DHT22;11481;53.694;9.910;2022-09-13T14:43:40;20.10;99.90
22629;DHT22;11481;53.694;9.910;2022-09-13T14:46:08;20.20;99.90
22629;DHT22;11481;53.694;9.910;2022-09-13T14:48:40;19.80;99.90
22629;DHT22;11481;53.694;9.910;2022-09-13T14:53:45;19.60;99.90
22629;DHT22;11481;53.694;9.910;2022-09-13T14:56:17;19.90;99.90
22629;DHT22;11481;53.694;9.910;2022-09-13T14:58:50;19.70;99.90
22629;DHT22;11481;53.694;9.910;2022-09-13T15:01:25;19.90;99.90
22629;DHT22;11481;53.694;9.910;2022-09-13T15:03:57;20.00;99.90
22629;DHT22;11481;53.694;9.910;2022-09-13T15:06:29;20.10;99.90
22629;DHT22;11481;53.694;9.910;2022-09-13T15:14:35;20.00;99.90
22629;DHT22;11481;53.694;9.910;2022-09-13T15:19:49;20.00;99.90
22629;DHT22;11481;53.694;9.910;2022-09-13T15:22:23;20.00;99.90
22629;DHT22;11481;53.694;9.910;2022-09-13T15:24:53;19.90;99.90
22629;DHT22;11481;53.694;9.910;2022-09-13T15:27:32;19.80;99.90
22629;DHT22;11481;53.694;9.910;2022-09-13T15:30:21;19.80;99.90
22629;DHT22;11481;53.694;9.910;2022-09-13T15:32:49;19.80;99.90
22629;DHT22;11481;53.694;9.910;2022-09-13T15:35:33;19.60;99.90
22629;DHT22;11481;53.694;9.910;2022-09-13T15:38:17;19.50;99.90
22629;DHT22;11481;53.694;9.910;2022-09-13T15:40:47;19.60;99.90
22629;DHT22;11481;53.694;9.910;2022-09-13T15:43:23;19.40;99.90
22629;DHT22;11481;53.694;9.910;2022-09-13T15:45:50;19.30;99.90
22629;DHT22;11481;53.694;9.910;2022-09-13T15:48:35;19.60;99.90
22629;DHT22;11481;53.694;9.910;2022-09-13T15:53:31;19.50;99.90
22629;DHT22;11481;53.694;9.910;2022-09-13T15:55:57;19.40;99.90
22629;DHT22;11481;53.694;9.910;2022-09-13T15:58:24;19.20;99.90
22629;DHT22;11481;53.694;9.910;2022-09-13T16:00:51;19.30;99.90
22629;DHT22;11481;53.694;9.910;2022-09-13T16:03:18;19.20;99.90
22629;DHT22;11481;53.694;9.910;2022-09-13T16:05:44;19.20;99.90
22629;DHT22;11481;53.694;9.910;2022-09-13T16:08:11;19.20;99.90
22629;DHT22;11481;53.694;9.910;2022-09-13T16:10:38;19.20;99.90
22629;DHT22;11481;53.694;9.910;2022-09-13T16:13:04;19.30;99.90
22629;DHT22;11481;53.694;9.910;2022-09-13T16:15:31;19.20;99.90
22629;DHT22;11481;53.694;9.910;2022-09-13T16:17:58;19.10;99.90
22629;DHT22;11481;53.694;9.910;2022-09-13T16:20:24;19.10;99.90
22629;DHT22;11481;53.694;9.910;2022-09-13T16:22:53;18.80;99.90
22629;DHT22;11481;53.694;9.910;2022-09-13T16:25:20;18.70;99.90
22629;DHT22;11481;53.694;9.910;2022-09-13T16:27:47;18.70;99.90
22629;DHT22;11481;53.694;9.910;2022-09-13T16:30:16;18.70;99.90
22629;DHT22;11481;53.694;9.910;2022-09-13T16:32:43;18.70;99.90
22629;DHT22;11481;53.694;9.910;2022-09-13T16:35:11;18.70;99.90
22629;DHT22;11481;53.694;9.910;2022-09-13T16:37:39;18.60;99.90
22629;DHT22;11481;53.694;9.910;2022-09-13T16:40:07;18.60;99.90
22629;DHT22;11481;53.694;9.910;2022-09-13T16:42:35;18.70;99.90
22629;DHT22;11481;53.694;9.910;2022-09-13T16:45:02;18.60;99.90
22629;DHT22;11481;53.694;9.910;2022-09-13T16:47:30;18.60;99.90
22629;DHT22;11481;53.694;9.910;2022-09-13T16:49:57;18.60;99.90
22629;DHT22;11481;53.694;9.910;2022-09-13T16:52:24;18.80;99.90
22629;DHT22;11481;53.694;9.910;2022-09-13T16:54:50;18.80;99.90
22629;DHT22;11481;53.694;9.910;2022-09-13T16:57:19;18.70;99.90
22629;DHT22;11481;53.694;9.910;2022-09-13T16:59:45;18.80;99.90
22629;DHT22;11481;53.694;9.910;2022-09-13T17:02:13;18.80;99.90
22629;DHT22;11481;53.694;9.910;2022-09-13T17:04:41;18.60;99.90
22629;DHT22;11481;53.694;9.910;2022-09-13T17:07:07;18.80;99.90
22629;DHT22;11481;53.694;9.910;2022-09-13T17:09:34;18.80;99.90
22629;DHT22;11481;53.694;9.910;2022-09-13T17:12:01;18.70;99.90
22629;DHT22;11481;53.694;9.910;2022-09-13T17:14:27;18.60;99.90
22629;DHT22;11481;53.694;9.910;2022-09-13T17:16:56;18.40;99.90
22629;DHT22;11481;53.694;9.910;2022-09-13T17:19:27;18.20;99.90
22629;DHT22;11481;53.694;9.910;2022-09-13T17:21:56;18.20;99.90
22629;DHT22;11481;53.694;9.910;2022-09-13T17:24:24;18.20;99.90
22629;DHT22;11481;53.694;9.910;2022-09-13T17:27:15;18.30;99.90
22629;DHT22;11481;53.694;9.910;2022-09-13T17:29:41;18.20;99.90
22629;DHT22;11481;53.694;9.910;2022-09-13T17:32:08;18.20;99.90
22629;DHT22;11481;53.694;9.910;2022-09-13T17:34:35;18.20;99.90
22629;DHT22;11481;53.694;9.910;2022-09-13T17:37:01;18.10;99.90
22629;DHT22;11481;53.694;9.910;2022-09-13T17:39:29;18.00;99.90
22629;DHT22;11481;53.694;9.910;2022-09-13T17:41:56;17.90;99.90
22629;DHT22;11481;53.694;9.910;2022-09-13T17:44:23;17.90;99.90
22629;DHT22;11481;53.694;9.910;2022-09-13T17:46:50;17.90;99.90
22629;DHT22;11481;53.694;9.910;2022-09-13T17:49:17;17.80;99.90
22629;DHT22;11481;53.694;9.910;2022-09-13T17:51:44;17.80;99.90
22629;DHT22;11481;53.694;9.910;2022-09-13T17:54:11;17.70;99.90
22629;DHT22;11481;53.694;9.910;2022-09-13T17:56:40;17.60;99.90
22629;DHT22;11481;53.694;9.910;2022-09-13T18:01:38;17.70;99.90
22629;DHT22;11481;53.694;9.910;2022-09-13T18:04:06;17.70;99.90
22629;DHT22;11481;53.694;9.910;2022-09-13T18:06:35;17.70;99.90
22629;DHT22;11481;53.694;9.910;2022-09-13T18:09:01;17.70;99.90
22629;DHT22;11481;53.694;9.910;2022-09-13T18:11:28;17.80;99.90
22629;DHT22;11481;53.694;9.910;2022-09-13T18:13:58;17.80;99.90
22629;DHT22;11481;53.694;9.910;2022-09-13T18:16:27;17.70;99.90
22629;DHT22;11481;53.694;9.910;2022-09-13T18:18:56;17.70;99.90
22629;DHT22;11481;53.694;9.910;2022-09-13T18:21:24;17.70;99.90
22629;DHT22;11481;53.694;9.910;2022-09-13T18:23:53;17.50;99.90
22629;DHT22;11481;53.694;9.910;2022-09-13T18:26:21;17.60;99.90
22629;DHT22;11481;53.694;9.910;2022-09-13T18:28:53;17.50;99.90
22629;DHT22;11481;53.694;9.910;2022-09-13T18:31:22;17.50;99.90
22629;DHT22;11481;53.694;9.910;2022-09-13T18:33:57;17.40;99.90
22629;DHT22;11481;53.694;9.910;2022-09-13T18:36:25;17.50;99.90
22629;DHT22;11481;53.694;9.910;2022-09-13T18:38:52;17.50;99.90
22629;DHT22;11481;53.694;9.910;2022-09-13T18:41:29;17.40;99.90
22629;DHT22;11481;53.694;9.910;2022-09-13T18:43:57;17.50;99.90
22629;DHT22;11481;53.694;9.910;2022-09-13T18:46:27;17.40;99.90
22629;DHT22;11481;53.694;9.910;2022-09-13T18:48:56;17.40;99.90
22629;DHT22;11481;53.694;9.910;2022-09-13T18:51:43;17.40;99.90
22629;DHT22;11481;53.694;9.910;2022-09-13T18:54:14;17.40;99.90
22629;DHT22;11481;53.694;9.910;2022-09-13T18:56:41;17.40;99.90
22629;DHT22;11481;53.694;9.910;2022-09-13T18:59:08;17.40;99.90
22629;DHT22;11481;53.694;9.910;2022-09-13T19:01:38;17.30;99.90